createdAt,value
2022-09-16T00:00:36.010Z,99.90
2022-09-16T00:03:03.657Z,99.90
2022-09-16T00:05:30.784Z,99.90
2022-09-16T00:07:57.791Z,99.90
2022-09-16T00:10:24.698Z,99.90
2022-09-16T00:12:51.826Z,99.90
2022-09-16T00:15:19.175Z,99.90
2022-09-16T00:17:46.104Z,99.90
2022-09-16T00:20:13.120Z,99.90
2022-09-16T00:22:40.000Z,99.90
2022-09-16T00:25:07.261Z,99.90
2022-09-16T00:27:34.145Z,99.90
2022-09-16T00:30:01.092Z,99.90
2022-09-16T00:32:27.928Z,99.90
2022-09-16T00:34:54.815Z,99.90
2022-09-16T00:37:21.735Z,99.90
2022-09-16T00:39:50.617Z,99.90
2022-09-16T00:42:19.273Z,99.90
2022-09-16T00:44:56.567Z,99.90
2022-09-16T00:47:31.914Z,99.90
2022-09-16T00:50:06.857Z,99.90
2022-09-16T00:52:34.094Z,99.90
2022-09-16T00:55:04.045Z,99.90
2022-09-16T00:57:31.104Z,99.90
2022-09-16T00:59:59.232Z,99.90
2022-09-16T01:02:27.118Z,99.90
2022-09-16T01:05:06.310Z,99.90
2022-09-16T01:07:51.128Z,99.90
2022-09-16T01:10:20.953Z,99.90
2022-09-16T01:12:55.515Z,99.90
2022-09-16T01:15:29.778Z,99.90
2022-09-16T01:18:07.134Z,99.90
2022-09-16T01:21:04.433Z,99.90
2022-09-16T01:23:50.151Z,99.90
2022-09-16T01:26:31.933Z,99.90
2022-09-16T01:29:21.652Z,99.90
2022-09-16T01:32:09.057Z,99.90
2022-09-16T01:35:14.471Z,99.90
2022-09-16T01:37:52.832Z,99.90
2022-09-16T01:40:24.519Z,99.90
2022-09-16T01:43:25.870Z,99.90
2022-09-16T01:46:07.478Z,99.90
2022-09-16T01:48:42.813Z,99.90
2022-09-16T01:51:35.925Z,99.90
2022-09-16T01:54:08.505Z,99.90
2022-09-16T01:57:07.869Z,99.90
2022-09-16T01:59:39.019Z,99.90
2022-09-16T02:02:31.990Z,99.90
2022-09-16T02:05:02.774Z,99.90
2022-09-16T02:07:36.414Z,99.90
2022-09-16T02:10:40.775Z,99.90
2022-09-16T02:13:33.909Z,99.90
2022-09-16T02:16:14.466Z,99.90
2022-09-16T02:18:44.950Z,99.90
2022-09-16T02:21:15.958Z,99.90
2022-09-16T02:23:48.583Z,99.90
2022-09-16T02:26:20.035Z,99.90
2022-09-16T02:28:48.588Z,99.90
2022-09-16T02:31:17.933Z,99.90
2022-09-16T02:34:07.054Z,99.90
2022-09-16T02:36:35.966Z,99.90
2022-09-16T02:39:09.479Z,99.90
2022-09-16T02:41:39.483Z,99.90
2022-09-16T02:44:07.759Z,99.90
2022-09-16T02:47:03.689Z,99.90
2022-09-16T02:49:54.554Z,99.90
2022-09-16T02:52:32.878Z,99.90
2022-09-16T02:55:06.350Z,99.90
2022-09-16T02:57:33.524Z,99.90
2022-09-16T03:00:00.604Z,99.90
2022-09-16T03:02:27.685Z,99.90
2022-09-16T03:04:54.683Z,99.90
2022-09-16T03:07:21.663Z,99.90
2022-09-16T03:09:50.247Z,99.90
2022-09-16T03:12:26.060Z,99.90
2022-09-16T03:15:03.816Z,99.90
2022-09-16T03:17:41.376Z,99.90
2022-09-16T03:20:12.132Z,99.90
2022-09-16T03:22:44.888Z,99.90
2022-09-16T03:25:36.730Z,99.90
2022-09-16T03:28:13.526Z,99.90
2022-09-16T03:30:55.730Z,99.90
2022-09-16T03:33:39.911Z,99.90
2022-09-16T03:36:09.517Z,99.90
2022-09-16T03:38:38.666Z,99.90
2022-09-16T03:41:07.705Z,99.90
2022-09-16T03:43:34.601Z,99.90
2022-09-16T03:46:01.568Z,99.90
2022-09-16T03:48:28.718Z,99.90
2022-09-16T03:50:55.564Z,99.90
2022-09-16T03:53:22.446Z,99.90
2022-09-16T03:55:50.387Z,99.90
2022-09-16T03:58:17.271Z,99.90
2022-09-16T04:00:48.177Z,99.90
2022-09-16T04:03:15.047Z,99.90
2022-09-16T04:05:41.947Z,99.90
2022-09-16T04:08:08.792Z,99.90
2022-09-16T04:10:35.700Z,99.90
2022-09-16T04:13:02.762Z,99.90
2022-09-16T04:15:29.584Z,99.90
2022-09-16T04:17:56.859Z,99.90
2022-09-16T04:20:24.034Z,99.90
2022-09-16T04:22:50.941Z,99.90
2022-09-16T04:25:17.919Z,99.90
2022-09-16T04:27:44.777Z,99.90
2022-09-16T04:30:12.456Z,99.90
2022-09-16T04:32:39.331Z,99.90
2022-09-16T04:35:06.719Z,99.90
2022-09-16T04:37:34.153Z,99.90
2022-09-16T04:40:04.764Z,99.90
2022-09-16T04:42:32.112Z,99.90
2022-09-16T04:47:26.317Z,99.90
2022-09-16T04:49:53.167Z,99.90
2022-09-16T04:52:19.977Z,99.90
2022-09-16T04:54:47.006Z,99.90
2022-09-16T04:57:13.858Z,99.90
2022-09-16T04:59:40.736Z,99.90
2022-09-16T05:02:07.686Z,99.90
2022-09-16T05:04:34.582Z,99.90
2022-09-16T05:07:01.414Z,99.90
2022-09-16T05:09:28.520Z,99.90
2022-09-16T05:11:55.377Z,99.90
2022-09-16T05:14:22.187Z,99.90
2022-09-16T05:16:49.307Z,99.90
2022-09-16T05:19:16.182Z,99.90
2022-09-16T05:21:43.416Z,99.90
2022-09-16T05:24:12.859Z,99.90
2022-09-16T05:26:42.182Z,99.90
2022-09-16T05:29:12.904Z,99.90
2022-09-16T05:31:42.203Z,99.90
2022-09-16T05:34:17.522Z,99.90
2022-09-16T05:36:47.554Z,99.90
2022-09-16T05:39:26.223Z,99.90
2022-09-16T05:41:56.530Z,99.90
2022-09-16T05:44:24.085Z,99.90
2022-09-16T05:46:51.150Z,99.90
2022-09-16T05:49:21.254Z,99.90
2022-09-16T05:51:49.090Z,99.90
2022-09-16T05:54:18.597Z,99.90
2022-09-16T05:56:46.437Z,99.90
2022-09-16T05:59:14.680Z,99.90
2022-09-16T06:01:42.266Z,99.90
2022-09-16T06:04:12.738Z,99.90
2022-09-16T06:06:41.884Z,99.90
2022-09-16T06:09:15.003Z,99.90
2022-09-16T06:11:44.716Z,99.90
2022-09-16T06:14:13.253Z,99.90
2022-09-16T06:16:40.695Z,99.90
2022-09-16T06:19:11.179Z,99.90
2022-09-16T06:21:39.045Z,99.90
2022-09-16T06:24:10.130Z,99.90
2022-09-16T06:26:40.266Z,99.90
2022-09-16T06:29:07.989Z,99.90
2022-09-16T06:31:36.303Z,99.90
2022-09-16T06:34:03.624Z,99.90
2022-09-16T06:36:44.651Z,99.90
2022-09-16T06:39:13.991Z,99.90
2022-09-16T06:41:40.950Z,99.90
2022-09-16T06:44:08.219Z,99.90
2022-09-16T06:46:35.153Z,99.90
2022-09-16T06:49:05.855Z,99.90
2022-09-16T06:51:35.174Z,99.90
2022-09-16T06:54:04.740Z,99.90
2022-09-16T06:56:31.865Z,99.90
2022-09-16T06:58:58.830Z,99.90
2022-09-16T07:01:29.334Z,99.90
2022-09-16T07:03:58.455Z,99.90
2022-09-16T07:09:17.066Z,99.90
2022-09-16T07:11:43.987Z,99.90
2022-09-16T07:14:11.038Z,99.90
2022-09-16T07:16:37.955Z,99.90
2022-09-16T07:19:05.636Z,99.90
2022-09-16T07:21:32.884Z,99.90
2022-09-16T07:24:02.005Z,99.90
2022-09-16T07:26:31.270Z,99.90
2022-09-16T07:29:02.179Z,99.90
2022-09-16T07:31:32.909Z,99.90
2022-09-16T07:34:04.875Z,99.90
2022-09-16T07:36:41.028Z,99.90
2022-09-16T07:39:08.486Z,99.90
2022-09-16T07:41:38.344Z,99.90
2022-09-16T07:44:07.835Z,99.90
2022-09-16T07:46:36.368Z,99.90
2022-09-16T07:49:06.174Z,99.90
2022-09-16T07:51:33.700Z,99.90
2022-09-16T07:54:04.366Z,99.90
2022-09-16T07:56:34.884Z,99.90
2022-09-16T07:59:04.505Z,99.90
2022-09-16T08:01:31.679Z,99.90
2022-09-16T08:03:59.342Z,99.90
2022-09-16T08:06:28.711Z,99.90
2022-09-16T08:09:10.096Z,99.90
2022-09-16T08:11:46.923Z,99.90
2022-09-16T08:14:13.912Z,99.90
2022-09-16T08:16:40.884Z,99.90
2022-09-16T08:19:07.808Z,99.90
2022-09-16T08:21:34.775Z,99.90
2022-09-16T08:24:01.924Z,99.80
2022-09-16T08:26:29.171Z,97.40
2022-09-16T08:29:08.463Z,97.60
2022-09-16T08:31:37.860Z,97.70
2022-09-16T08:34:05.098Z,99.00
2022-09-16T08:36:33.836Z,99.90
2022-09-16T08:39:00.983Z,99.10
2022-09-16T08:41:37.134Z,99.90
2022-09-16T08:44:13.827Z,99.90
2022-09-16T08:46:53.976Z,99.90
2022-09-16T08:49:26.994Z,99.90
2022-09-16T08:51:55.590Z,99.90
2022-09-16T08:54:31.450Z,99.60
2022-09-16T08:57:04.911Z,99.90
2022-09-16T08:59:39.836Z,99.90
2022-09-16T09:02:28.663Z,99.90
2022-09-16T09:04:56.232Z,99.90
2022-09-16T09:07:43.466Z,99.90
2022-09-16T09:10:29.974Z,99.60
2022-09-16T09:13:17.199Z,98.70
2022-09-16T09:16:14.775Z,99.20
2022-09-16T09:19:04.128Z,96.80
2022-09-16T09:21:39.667Z,97.10
2022-09-16T09:24:31.303Z,97.20
2022-09-16T09:27:24.574Z,97.40
2022-09-16T09:30:13.181Z,96.60
2022-09-16T09:33:10.777Z,96.70
2022-09-16T09:36:14.418Z,95.60
2022-09-16T09:39:09.969Z,95.10
2022-09-16T09:41:58.629Z,95.00
2022-09-16T09:44:46.662Z,95.50
2022-09-16T09:47:22.002Z,96.30
2022-09-16T09:49:56.796Z,96.40
2022-09-16T09:52:33.800Z,96.50
2022-09-16T09:55:16.280Z,96.60
2022-09-16T09:58:11.354Z,96.30
2022-09-16T10:00:38.443Z,96.50
2022-09-16T10:03:15.181Z,96.70
2022-09-16T10:05:42.853Z,97.20
2022-09-16T10:08:25.004Z,96.10
2022-09-16T10:10:55.820Z,96.70
2022-09-16T10:13:24.519Z,97.20
2022-09-16T10:15:55.841Z,96.90
2022-09-16T10:18:32.651Z,96.30
2022-09-16T10:21:10.976Z,92.00
2022-09-16T10:23:39.547Z,92.30
2022-09-16T10:26:28.317Z,91.10
2022-09-16T10:29:12.741Z,90.30
2022-09-16T10:31:42.964Z,91.00
2022-09-16T10:34:29.247Z,89.30
2022-09-16T10:37:19.985Z,90.10
2022-09-16T10:39:55.020Z,91.30
2022-09-16T10:42:25.550Z,91.60
2022-09-16T10:45:02.679Z,92.40
2022-09-16T10:47:32.840Z,93.20
2022-09-16T10:50:04.900Z,93.80
2022-09-16T10:52:40.940Z,93.50
2022-09-16T10:55:30.406Z,91.80
2022-09-16T10:58:09.644Z,92.50
2022-09-16T11:00:56.195Z,91.70
2022-09-16T11:03:32.466Z,91.90
2022-09-16T11:06:14.741Z,92.70
2022-09-16T11:08:57.188Z,93.20
2022-09-16T11:11:42.256Z,94.30
2022-09-16T11:15:06.206Z,94.40
2022-09-16T11:18:12.054Z,95.10
2022-09-16T11:20:51.262Z,95.00
2022-09-16T11:23:35.936Z,96.00
2022-09-16T11:26:12.105Z,96.20
2022-09-16T11:28:57.824Z,96.70
2022-09-16T11:31:24.836Z,97.40
2022-09-16T11:34:14.780Z,97.40
2022-09-16T11:36:46.973Z,97.10
2022-09-16T11:39:34.729Z,97.50
2022-09-16T11:42:15.293Z,97.70
2022-09-16T11:44:52.323Z,97.10
2022-09-16T11:47:46.383Z,97.10
2022-09-16T11:50:22.826Z,97.60
2022-09-16T11:53:15.418Z,97.80
2022-09-16T11:55:56.903Z,96.80
2022-09-16T11:58:47.943Z,94.90
2022-09-16T12:01:23.951Z,92.90
2022-09-16T12:04:06.858Z,91.40
2022-09-16T12:06:59.100Z,90.00
2022-09-16T12:09:41.479Z,87.80
2022-09-16T12:12:13.763Z,88.70
2022-09-16T12:14:53.501Z,85.80
2022-09-16T12:17:28.491Z,84.80
2022-09-16T12:20:06.985Z,79.70
2022-09-16T12:22:37.262Z,79.20
2022-09-16T12:25:13.905Z,79.10
2022-09-16T12:27:52.639Z,79.70
2022-09-16T12:30:23.939Z,80.40
2022-09-16T12:33:00.261Z,82.70
2022-09-16T12:35:33.381Z,85.00
2022-09-16T12:38:01.139Z,89.70
2022-09-16T12:40:34.809Z,92.20
2022-09-16T12:43:04.882Z,94.50
2022-09-16T12:45:52.934Z,99.20
2022-09-16T12:48:42.025Z,99.90
2022-09-16T12:51:19.170Z,99.70
2022-09-16T12:53:55.044Z,97.00
2022-09-16T12:56:46.325Z,95.90
2022-09-16T12:59:42.362Z,93.00
2022-09-16T13:02:22.754Z,87.40
2022-09-16T13:04:53.861Z,85.00
2022-09-16T13:07:27.301Z,82.60
2022-09-16T13:10:04.980Z,85.20
2022-09-16T13:12:41.328Z,88.40
2022-09-16T13:15:30.750Z,88.80
2022-09-16T13:18:14.827Z,90.50
2022-09-16T13:20:49.089Z,91.00
2022-09-16T13:23:28.332Z,90.70
2022-09-16T13:25:55.295Z,91.40
2022-09-16T13:28:41.974Z,91.90
2022-09-16T13:31:14.543Z,92.20
2022-09-16T13:33:46.176Z,92.80
2022-09-16T13:36:25.590Z,93.90
2022-09-16T13:39:00.996Z,96.20
2022-09-16T13:41:45.636Z,99.90
2022-09-16T13:44:41.761Z,99.90
2022-09-16T13:47:11.661Z,99.90
2022-09-16T13:49:47.625Z,99.90
2022-09-16T13:52:35.472Z,99.90
2022-09-16T13:55:11.111Z,99.90
2022-09-16T13:58:15.096Z,94.10
2022-09-16T14:00:58.668Z,91.50
2022-09-16T14:03:54.582Z,89.60
2022-09-16T14:06:49.225Z,90.80
2022-09-16T14:09:27.073Z,86.40
2022-09-16T14:12:03.965Z,88.80
2022-09-16T14:14:47.010Z,89.40
2022-09-16T14:17:25.386Z,86.40
2022-09-16T14:19:57.658Z,85.20
2022-09-16T14:22:27.512Z,85.40
2022-09-16T14:25:05.909Z,83.80
2022-09-16T14:27:40.457Z,86.70
2022-09-16T14:30:15.873Z,88.50
2022-09-16T14:32:42.985Z,88.30
2022-09-16T14:35:20.933Z,89.70
2022-09-16T14:37:52.521Z,89.10
2022-09-16T14:40:22.756Z,89.40
2022-09-16T14:42:55.041Z,90.10
2022-09-16T14:45:22.397Z,90.50
2022-09-16T14:47:52.359Z,90.80
2022-09-16T14:50:41.678Z,90.90
2022-09-16T14:53:35.788Z,90.90
2022-09-16T14:56:04.959Z,91.20
2022-09-16T14:58:33.639Z,91.80
2022-09-16T15:01:26.143Z,92.40
2022-09-16T15:04:09.519Z,92.20
2022-09-16T15:06:40.634Z,93.10
2022-09-16T15:09:14.530Z,93.30
2022-09-16T15:11:53.248Z,96.30
2022-09-16T15:14:20.749Z,99.90
2022-09-16T15:16:52.805Z,99.90
2022-09-16T15:19:30.083Z,99.90
2022-09-16T15:21:57.877Z,99.90
2022-09-16T15:24:29.074Z,99.90
2022-09-16T15:26:57.387Z,99.90
2022-09-16T15:29:24.847Z,99.90
2022-09-16T15:31:52.612Z,99.90
2022-09-16T15:34:21.196Z,99.90
2022-09-16T15:36:50.957Z,99.90
2022-09-16T15:39:28.526Z,99.90
2022-09-16T15:42:12.685Z,99.90
2022-09-16T15:45:14.036Z,99.90
2022-09-16T15:47:55.006Z,99.90
2022-09-16T15:50:23.440Z,99.90
2022-09-16T15:53:16.198Z,99.90
2022-09-16T15:56:01.442Z,99.90
2022-09-16T15:58:47.363Z,99.90
2022-09-16T16:01:41.681Z,99.90
2022-09-16T16:04:12.304Z,99.90
2022-09-16T16:06:54.321Z,99.90
2022-09-16T16:09:29.734Z,99.90
2022-09-16T16:12:08.176Z,99.90
2022-09-16T16:14:36.095Z,99.90
2022-09-16T16:17:14.147Z,99.90
2022-09-16T16:19:45.966Z,99.90
2022-09-16T16:22:14.292Z,99.90
2022-09-16T16:24:41.860Z,99.90
2022-09-16T16:27:10.270Z,99.90
2022-09-16T16:29:39.098Z,99.90
2022-09-16T16:32:12.009Z,99.90
2022-09-16T16:34:41.463Z,99.90
2022-09-16T16:37:19.171Z,99.90
2022-09-16T16:39:55.607Z,99.90
2022-09-16T16:42:23.257Z,99.90
2022-09-16T16:44:50.474Z,99.90
2022-09-16T16:47:17.679Z,99.90
2022-09-16T16:49:48.297Z,99.90
2022-09-16T16:52:17.678Z,99.90
2022-09-16T16:54:44.533Z,99.90
2022-09-16T16:57:11.828Z,99.90
2022-09-16T16:59:38.789Z,99.90
2022-09-16T17:02:06.107Z,99.90
2022-09-16T17:04:33.024Z,99.90
2022-09-16T17:07:24.064Z,99.90
2022-09-16T17:09:46.881Z,99.90
2022-09-16T17:12:13.811Z,99.90
2022-09-16T17:14:42.191Z,99.90
2022-09-16T17:17:09.050Z,99.90
2022-09-16T17:19:35.905Z,99.90
2022-09-16T17:22:03.068Z,99.90
2022-09-16T17:24:29.980Z,99.90
2022-09-16T17:26:57.399Z,99.90
2022-09-16T17:29:24.296Z,99.90
2022-09-16T17:31:51.295Z,99.90
2022-09-16T17:34:18.659Z,99.90
2022-09-16T17:36:46.487Z,99.90
2022-09-16T17:39:21.303Z,99.90
2022-09-16T17:41:49.275Z,99.90
2022-09-16T17:44:17.685Z,99.90
2022-09-16T17:46:45.633Z,99.90
2022-09-16T17:49:18.276Z,99.90
2022-09-16T17:51:45.490Z,99.90
2022-09-16T17:54:12.876Z,99.90
2022-09-16T17:56:40.034Z,99.90
2022-09-16T17:59:07.029Z,99.90
2022-09-16T18:01:34.554Z,99.90
2022-09-16T18:04:02.120Z,99.90
2022-09-16T18:06:32.047Z,99.90
2022-09-16T18:09:04.112Z,99.90
2022-09-16T18:11:31.393Z,99.90
2022-09-16T18:14:02.180Z,99.90
2022-09-16T18:16:30.456Z,99.90
2022-09-16T18:19:00.086Z,99.90
2022-09-16T18:21:27.756Z,99.90
2022-09-16T18:23:59.990Z,99.90
2022-09-16T18:26:28.007Z,99.90
2022-09-16T18:29:12.628Z,99.90
2022-09-16T18:31:47.861Z,99.90
2022-09-16T18:34:16.339Z,99.90
2022-09-16T18:36:43.476Z,99.90
2022-09-16T18:39:16.410Z,99.90
2022-09-16T18:41:45.221Z,99.90
2022-09-16T18:44:19.855Z,99.90
2022-09-16T18:46:47.243Z,99.90
2022-09-16T18:49:16.147Z,99.90
2022-09-16T18:51:50.993Z,99.90
2022-09-16T18:54:30.558Z,99.90
2022-09-16T18:57:00.009Z,99.90
2022-09-16T18:59:29.689Z,99.90
2022-09-16T19:01:59.327Z,99.90
2022-09-16T19:04:32.627Z,99.90
2022-09-16T19:07:07.377Z,99.90
2022-09-16T19:09:36.854Z,99.90
2022-09-16T19:12:04.229Z,99.90
2022-09-16T19:14:31.111Z,99.90
2022-09-16T19:16:58.318Z,99.90
2022-09-16T19:19:25.225Z,99.90
2022-09-16T19:21:52.102Z,99.90
2022-09-16T19:24:21.651Z,99.90
2022-09-16T19:26:50.468Z,99.90
2022-09-16T19:29:18.419Z,99.90
2022-09-16T19:31:47.525Z,99.90
2022-09-16T19:34:15.834Z,99.90
2022-09-16T19:36:43.326Z,99.90
2022-09-16T19:39:12.145Z,99.90
2022-09-16T19:41:40.264Z,99.90
2022-09-16T19:44:11.100Z,99.90
2022-09-16T19:46:39.443Z,99.90
2022-09-16T19:49:08.298Z,99.90
2022-09-16T19:51:35.648Z,99.90
2022-09-16T19:54:03.211Z,99.90
2022-09-16T19:56:32.413Z,99.90
2022-09-16T19:59:00.439Z,99.90
2022-09-16T20:01:30.727Z,99.90
2022-09-16T20:03:58.032Z,99.90
2022-09-16T20:06:27.932Z,99.90
2022-09-16T20:08:57.181Z,99.90
2022-09-16T20:11:26.893Z,99.90
2022-09-16T20:14:00.276Z,99.90
2022-09-16T20:16:30.864Z,99.90
2022-09-16T20:18:58.237Z,99.90
2022-09-16T20:21:27.194Z,99.90
2022-09-16T20:23:54.795Z,99.90
2022-09-16T20:26:22.975Z,99.90
2022-09-16T20:28:55.343Z,99.90
2022-09-16T20:31:28.063Z,99.90
2022-09-16T20:33:56.091Z,99.90
2022-09-16T20:36:24.741Z,99.90
2022-09-16T20:38:52.509Z,99.90
2022-09-16T20:41:23.094Z,99.90
2022-09-16T20:43:51.046Z,99.90
2022-09-16T20:46:21.566Z,99.90
2022-09-16T20:48:49.397Z,99.90
2022-09-16T20:51:19.140Z,99.90
2022-09-16T20:53:52.402Z,99.90
2022-09-16T20:56:19.275Z,99.90
2022-09-16T20:58:47.260Z,99.90
2022-09-16T21:01:33.778Z,99.90
2022-09-16T21:04:06.214Z,99.90
2022-09-16T21:06:34.970Z,99.90
2022-09-16T21:09:05.491Z,99.90
2022-09-16T21:11:33.273Z,99.90
2022-09-16T21:14:02.245Z,99.90
2022-09-16T21:16:31.992Z,99.90
2022-09-16T21:19:01.646Z,99.90
2022-09-16T21:21:29.533Z,99.90
2022-09-16T21:23:58.548Z,99.90
2022-09-16T21:26:26.682Z,99.90
2022-09-16T21:29:01.705Z,99.90
2022-09-16T21:31:30.462Z,99.90
2022-09-16T21:33:58.436Z,99.90
2022-09-16T21:36:28.215Z,99.90
2022-09-16T21:38:55.740Z,99.90
2022-09-16T21:41:24.010Z,99.90
2022-09-16T21:43:56.151Z,99.90
2022-09-16T21:46:26.081Z,99.90
2022-09-16T21:48:56.419Z,99.90
2022-09-16T21:51:23.388Z,99.90
2022-09-16T21:53:50.579Z,99.90
2022-09-16T21:56:22.522Z,99.90
2022-09-16T21:58:53.112Z,99.90
2022-09-16T22:01:22.929Z,99.90
2022-09-16T22:04:01.781Z,99.90
2022-09-16T22:06:29.006Z,99.90
2022-09-16T22:08:59.026Z,99.90
2022-09-16T22:11:27.463Z,99.90
2022-09-16T22:13:55.911Z,99.90
2022-09-16T22:16:29.602Z,99.90
2022-09-16T22:19:01.767Z,99.90
2022-09-16T22:21:31.755Z,99.90
2022-09-16T22:24:00.438Z,99.90
2022-09-16T22:26:29.283Z,99.90
2022-09-16T22:28:56.200Z,99.90
2022-09-16T22:31:26.500Z,99.90
2022-09-16T22:33:54.942Z,99.90
2022-09-16T22:36:24.282Z,99.90
2022-09-16T22:38:54.222Z,99.90
2022-09-16T22:41:22.693Z,99.90
2022-09-16T22:43:51.379Z,99.90
2022-09-16T22:46:24.392Z,99.90
2022-09-16T22:48:52.278Z,99.90
2022-09-16T22:51:20.710Z,99.90
2022-09-16T22:53:48.841Z,99.90
2022-09-16T22:56:29.462Z,99.90
2022-09-16T22:58:57.729Z,99.90
2022-09-16T23:01:27.652Z,99.90
2022-09-16T23:03:56.877Z,99.90
2022-09-16T23:06:25.492Z,99.90
2022-09-16T23:08:53.270Z,99.90
2022-09-16T23:11:23.714Z,99.90
2022-09-16T23:13:52.817Z,99.90
2022-09-16T23:16:27.041Z,99.90
2022-09-16T23:18:57.862Z,99.90
2022-09-16T23:21:25.141Z,99.90
2022-09-16T23:23:54.659Z,99.90
2022-09-16T23:26:24.647Z,99.90
2022-09-16T23:28:56.306Z,99.90
2022-09-16T23:31:28.743Z,99.90
2022-09-16T23:33:56.544Z,99.90
2022-09-16T23:36:24.874Z,99.90
2022-09-16T23:38:52.511Z,99.90
2022-09-16T23:41:23.815Z,99.90
2022-09-16T23:43:50.839Z,99.90
2022-09-16T23:46:20.065Z,99.90
2022-09-16T23:48:47.874Z,99.90
2022-09-16T23:51:14.739Z,99.90
2022-09-16T23:53:45.141Z,99.90
2022-09-16T23:56:14.833Z,99.90
2022-09-16T23:58:42.378Z,99.90
